New Market, Indiana
Current Conditions -  °F | °C
As of 3:35 AM on Tuesday 21 Oct 2014 (Local Time) from K4I7 Reporting Station
Broken Clouds Broken Clouds  
Wind Chill:   Ceiling: 6500
Heat Index:   Visibility: 10mi
Dew Point:   Wind: 0mph
Humidity: 93%   Direction: NA
Pressure: 29.99"   Gusts: NA
Location:  39.95°N, 86.92°W
Report Text: K4I7 210735Z AUTO 00000KT 10SM BKN065 08/07 A2999 RMK AO2
Loading
Personal Weather Stations






























Interactive Weather Map
Tropical Storm Tracking
New forecast layout! Learn more

10-Day Weather Forecast

Advertisements
Track Severe Weather on mobile